M Y Odessa — ZCYV3 — position and weather

sailwx.info

Track history (hours):
 
Tides and Currents Weather Stations Pressure Air Temp Water Temp Dewpoint Dewpoint Depression Visibility Wind Speed Wind Dir Waves Ship Positions

M Y Odessa

Last reported at 2014-Nov-28 09:05 UTC. Time now 2014-Nov-28 15:39 UTC.
Position N 32°01' W 081°03'.

Length 48 m; draft 2.4 m.

Type: Pleasure craft. MMSI: 319010700.

Date/timePositionNaut miles runAvg speedWind from/ knotsBaromVisibWave heightAir tempDewpointWater temp
2014-Nov-28 09:05N 32°01' W 081°03'0 0.0
2014-Nov-28 06:08N 32°01' W 081°03'0 0.1
2014-Nov-28 05:31N 32°01' W 081°03'0 0.1
2014-Nov-28 04:09N 32°01' W 081°03'0 0.1
2014-Nov-28 01:29N 32°01' W 081°02'0 0.3
2014-Nov-28 00:32N 32°01' W 081°03'0 0.2
2014-Nov-27 21:20N 32°01' W 081°03'1 0.6
2014-Nov-27 20:28N 32°01' W 081°03'0 0.0
2014-Nov-27 06:13N 32°01' W 081°03'0 0.0
2014-Nov-27 04:15N 32°01' W 081°03'0 0.1
2014-Nov-27 02:25N 32°01' W 081°03'0 0.2
2014-Nov-27 01:26N 32°01' W 081°03'0 0.1
2014-Nov-27 00:34N 32°01' W 081°03'1 0.3
2014-Nov-26 21:15N 32°02' W 081°03'1 1.2
2014-Nov-26 20:31N 32°01' W 081°03'0 0.0
2014-Nov-26 08:33N 32°01' W 081°03'0 0.0
2014-Nov-26 06:21N 32°01' W 081°03'0 0.1
2014-Nov-26 05:33N 32°01' W 081°03'0 0.0
2014-Nov-26 04:15N 32°01' W 081°03'0 0.0
2014-Nov-26 02:05N 32°01' W 081°03'0 0.1
2014-Nov-26 01:31N 32°01' W 081°03'0 0.1
2014-Nov-26 00:33N 32°01' W 081°03'0 0.0
2014-Nov-25 22:19N 32°01' W 081°03'0 0.2
2014-Nov-25 21:33N 32°01' W 081°03'0 0.1
2014-Nov-25 20:30N 32°01' W 081°03'0 0.0
2014-Nov-25 06:19N 32°01' W 081°03'0 0.1
2014-Nov-25 05:33N 32°01' W 081°03'0 0.0
2014-Nov-25 02:31N 32°01' W 081°03'0 0.0
2014-Nov-25 01:21N 32°01' W 081°03'0 0.4
2014-Nov-25 00:32N 32°02' W 081°03'0 0.1
2014-Nov-24 22:15N 32°01' W 081°03'0 0.5
2014-Nov-24 21:23N 32°02' W 081°03'0 0.1
2014-Nov-24 15:04N 32°01' W 081°03'0 0.0
2014-Nov-24 02:23N 32°01' W 081°03'1 1.2
2014-Nov-24 01:27N 32°01' W 081°01'4 4.4
2014-Nov-24 00:33N 32°03' W 081°06'2 0.7
2014-Nov-23 21:29N 32°03' W 081°03'  
Track history (hours):
 
Tides and Currents Weather Stations Pressure Air Temp Water Temp Dewpoint Dewpoint Depression Visibility Wind Speed Wind Dir Waves Ship Positions

M Y Odessa

Last reported at 2014-Nov-28 09:05 UTC. Time now 2014-Nov-28 15:39 UTC.
Position N 32°01' W 081°03'.

Length 48 m; draft 2.4 m.

Type: Pleasure craft. MMSI: 319010700.

Date/timePositionNaut miles runAvg speedWind from/ knotsBaromVisibWave heightAir tempDewpointWater temp
2014-Nov-28 09:05N 32°01' W 081°03'0 0.0
2014-Nov-28 06:08N 32°01' W 081°03'0 0.1
2014-Nov-28 05:31N 32°01' W 081°03'0 0.1
2014-Nov-28 04:09N 32°01' W 081°03'0 0.1
2014-Nov-28 01:29N 32°01' W 081°02'0 0.3
2014-Nov-28 00:32N 32°01' W 081°03'0 0.2
2014-Nov-27 21:20N 32°01' W 081°03'1 0.6
2014-Nov-27 20:28N 32°01' W 081°03'0 0.0
2014-Nov-27 06:13N 32°01' W 081°03'0 0.0
2014-Nov-27 04:15N 32°01' W 081°03'0 0.1
2014-Nov-27 02:25N 32°01' W 081°03'0 0.2
2014-Nov-27 01:26N 32°01' W 081°03'0 0.1
2014-Nov-27 00:34N 32°01' W 081°03'1 0.3
2014-Nov-26 21:15N 32°02' W 081°03'1 1.2
2014-Nov-26 20:31N 32°01' W 081°03'0 0.0
2014-Nov-26 08:33N 32°01' W 081°03'0 0.0
2014-Nov-26 06:21N 32°01' W 081°03'0 0.1
2014-Nov-26 05:33N 32°01' W 081°03'0 0.0
2014-Nov-26 04:15N 32°01' W 081°03'0 0.0
2014-Nov-26 02:05N 32°01' W 081°03'0 0.1
2014-Nov-26 01:31N 32°01' W 081°03'0 0.1
2014-Nov-26 00:33N 32°01' W 081°03'0 0.0
2014-Nov-25 22:19N 32°01' W 081°03'0 0.2
2014-Nov-25 21:33N 32°01' W 081°03'0 0.1
2014-Nov-25 20:30N 32°01' W 081°03'0 0.0
2014-Nov-25 06:19N 32°01' W 081°03'0 0.1
2014-Nov-25 05:33N 32°01' W 081°03'0 0.0
2014-Nov-25 02:31N 32°01' W 081°03'0 0.0
2014-Nov-25 01:21N 32°01' W 081°03'0 0.4
2014-Nov-25 00:32N 32°02' W 081°03'0 0.1
2014-Nov-24 22:15N 32°01' W 081°03'0 0.5
2014-Nov-24 21:23N 32°02' W 081°03'0 0.1
2014-Nov-24 15:04N 32°01' W 081°03'0 0.0
2014-Nov-24 02:23N 32°01' W 081°03'1 1.2
2014-Nov-24 01:27N 32°01' W 081°01'4 4.4
2014-Nov-24 00:33N 32°03' W 081°06'2 0.7
2014-Nov-23 21:29N 32°03' W 081°03'  

Dump ship's entire track history